Time;durP1;ratioP1;P1;durP2;ratioP2;P2;SDS_P1;SDS_P2;PMS_P1;PMS_P2;Temp;Humidity;BMP_temperature;BMP_pressure;BME280_temperature;BME280_humidity;BME280_pressure;Samples;Min_cycle;Max_cycle;Signal;HPM_P1;HPM_P2
2024/03/30 00:00:40;;;;;;;7.43;3.50;;;;;;;12.72;51.94;94856.81;5137444;27;20039;-66
2024/03/30 00:03:05;;;;;;;6.85;3.50;;;;;;;12.82;51.80;94867.25;5119858;27;20552;-67
2024/03/30 00:05:31;;;;;;;7.03;3.80;;;;;;;12.81;51.63;94857.75;5155785;27;20038;-67
2024/03/30 00:07:56;;;;;;;9.00;3.90;;;;;;;12.53;52.09;94826.38;5137117;27;20027;-67
2024/03/30 00:10:21;;;;;;;8.68;3.45;;;;;;;12.75;52.28;94856.53;5155681;27;20035;-66
2024/03/30 00:12:49;;;;;;;7.25;4.15;;;;;;;12.88;51.68;94863.25;5155239;27;20461;-67
2024/03/30 00:15:15;;;;;;;6.63;3.92;;;;;;;12.74;52.13;94864.50;5137106;27;20069;-67
2024/03/30 00:17:40;;;;;;;8.15;4.20;;;;;;;12.73;52.10;94855.03;5155167;27;20054;-67
2024/03/30 00:20:06;;;;;;;8.63;4.15;;;;;;;12.61;53.32;94837.91;5120039;27;20027;-67
2024/03/30 00:22:31;;;;;;;8.23;4.68;;;;;;;12.58;52.78;94872.06;5102621;27;20555;-66
2024/03/30 00:24:56;;;;;;;8.50;5.05;;;;;;;12.46;53.00;94866.97;5136631;27;20023;-67
2024/03/30 00:27:22;;;;;;;15.57;5.53;;;;;;;12.41;53.09;94863.16;5136712;27;20026;-66
2024/03/30 00:29:47;;;;;;;12.40;6.05;;;;;;;12.18;53.53;94865.19;5155150;27;20018;-66
2024/03/30 00:32:13;;;;;;;10.10;5.70;;;;;;;12.10;53.91;94870.25;5136874;27;20484;-67
2024/03/30 00:34:39;;;;;;;11.10;5.88;;;;;;;12.07;54.28;94869.56;5102208;27;20578;-67
2024/03/30 00:37:05;;;;;;;13.23;6.78;;;;;;;11.90;54.50;94854.59;5102649;27;20035;-66
2024/03/30 00:39:31;;;;;;;12.00;6.18;;;;;;;11.94;54.81;94868.16;5119968;27;20662;-67
2024/03/30 00:41:56;;;;;;;11.63;6.03;;;;;;;11.78;55.21;94860.81;5155622;27;20079;-67
2024/03/30 00:44:22;;;;;;;11.77;5.95;;;;;;;11.69;55.47;94861.63;5119222;27;20031;-67
2024/03/30 00:46:47;;;;;;;11.77;6.07;;;;;;;11.71;55.71;94859.72;5136611;27;20084;-67
2024/03/30 00:49:13;;;;;;;11.70;6.20;;;;;;;11.62;55.79;94859.56;5119040;27;20022;-67
2024/03/30 00:51:38;;;;;;;10.82;5.28;;;;;;;11.52;56.14;94860.47;5136330;27;20393;-67
2024/03/30 00:54:03;;;;;;;10.93;5.47;;;;;;;11.50;56.23;94846.78;5136141;27;20507;-67
2024/03/30 00:56:30;;;;;;;10.70;5.90;;;;;;;11.56;56.24;94854.88;5119250;27;20035;-67
2024/03/30 00:58:56;;;;;;;12.27;5.88;;;;;;;11.63;55.90;94852.56;5136364;27;20023;-67
2024/03/30 01:01:22;;;;;;;11.20;5.97;;;;;;;11.57;56.45;94846.13;5136076;27;20038;-67
2024/03/30 01:03:47;;;;;;;9.52;5.60;;;;;;;11.46;56.38;94845.41;5136529;27;20026;-67
2024/03/30 01:06:13;;;;;;;11.32;6.10;;;;;;;11.45;56.56;94844.59;5135753;27;20035;-67
2024/03/30 01:08:38;;;;;;;13.07;6.20;;;;;;;11.03;56.93;94797.88;5153139;27;20030;-67
2024/03/30 01:11:04;;;;;;;11.35;6.00;;;;;;;11.27;57.22;94848.75;5154468;27;20027;-67
2024/03/30 01:13:30;;;;;;;12.32;6.55;;;;;;;11.14;57.69;94839.41;5118904;27;20046;-67
2024/03/30 01:15:56;;;;;;;12.60;6.88;;;;;;;10.99;58.14;94843.28;5118649;27;20042;-67
2024/03/30 01:18:22;;;;;;;13.60;6.32;;;;;;;11.01;58.20;94840.56;5102042;27;20029;-67
2024/03/30 01:20:50;;;;;;;13.45;6.85;;;;;;;10.93;58.28;94839.41;5135541;27;20035;-66
2024/03/30 01:23:20;;;;;;;12.52;6.80;;;;;;;10.87;58.62;94844.31;5118840;27;20027;-67
2024/03/30 01:25:45;;;;;;;15.15;6.38;;;;;;;10.86;58.52;94842.66;5118729;27;20493;-67
2024/03/30 01:28:11;;;;;;;11.68;6.90;;;;;;;10.76;58.46;94836.59;5101449;27;20083;-67
2024/03/30 01:30:37;;;;;;;14.02;6.55;;;;;;;10.65;58.90;94840.88;5135344;27;20075;-66
2024/03/30 01:33:02;;;;;;;12.85;6.88;;;;;;;10.77;59.02;94838.22;5101104;27;20037;-66
2024/03/30 01:35:28;;;;;;;13.25;6.72;;;;;;;10.74;58.83;94844.50;5135394;27;20485;-67
2024/03/30 01:37:53;;;;;;;11.02;6.28;;;;;;;10.85;58.84;94847.03;5118470;27;20076;-67
2024/03/30 01:40:19;;;;;;;12.93;6.68;;;;;;;10.66;59.23;94834.72;5135479;27;20416;-66
2024/03/30 01:42:45;;;;;;;12.50;6.38;;;;;;;10.72;59.06;94842.00;5118259;27;20023;-66
2024/03/30 01:45:10;;;;;;;12.50;6.30;;;;;;;10.74;59.14;94834.91;5135413;27;20085;-67
2024/03/30 01:47:36;;;;;;;13.75;7.18;;;;;;;10.57;59.23;94819.09;5118111;27;20022;-67
2024/03/30 01:50:01;;;;;;;13.00;6.25;;;;;;;10.50;59.67;94842.97;5153826;27;20026;-67
2024/03/30 01:52:29;;;;;;;11.20;6.03;;;;;;;10.43;59.90;94839.22;5117979;27;20023;-66
2024/03/30 01:54:54;;;;;;;9.82;6.38;;;;;;;10.44;59.86;94846.06;5118170;27;20023;-66
2024/03/30 01:57:20;;;;;;;12.32;6.30;;;;;;;10.43;59.92;94847.00;5153458;27;20331;-66
2024/03/30 01:59:45;;;;;;;11.40;6.00;;;;;;;10.25;60.39;94840.69;5135025;27;20031;-67
2024/03/30 02:02:11;;;;;;;16.17;5.45;;;;;;;10.30;60.17;94835.97;5117946;27;20043;-67
2024/03/30 02:04:37;;;;;;;12.00;6.07;;;;;;;10.22;60.50;94835.75;5134888;27;20412;-66
2024/03/30 02:07:02;;;;;;;12.60;6.00;;;;;;;10.19;60.37;94839.41;5118085;27;20412;-67
2024/03/30 02:09:28;;;;;;;10.30;5.70;;;;;;;10.22;60.41;94846.97;5100672;27;20023;-67
2024/03/30 02:11:53;;;;;;;9.50;5.38;;;;;;;10.35;59.96;94853.78;5117834;27;20408;-67
2024/03/30 02:14:19;;;;;;;9.70;5.00;;;;;;;10.25;60.13;94849.31;5134934;27;20034;-66
2024/03/30 02:16:44;;;;;;;10.80;5.80;;;;;;;10.13;60.76;94855.47;5100454;27;20035;-67
2024/03/30 02:19:09;;;;;;;11.50;5.97;;;;;;;10.16;60.71;94852.63;5152857;27;20023;-66
2024/03/30 02:21:35;;;;;;;10.38;5.70;;;;;;;10.03;60.88;94842.44;5134826;27;20477;-67
2024/03/30 02:24:00;;;;;;;8.30;4.72;;;;;;;10.06;60.99;94838.78;5100498;27;20476;-67
2024/03/30 02:26:26;;;;;;;9.75;5.35;;;;;;;9.92;60.79;94818.25;5134772;27;20023;-67
2024/03/30 02:28:52;;;;;;;13.05;5.80;;;;;;;10.10;60.53;94832.38;5117328;27;20022;-66
2024/03/30 02:31:18;;;;;;;7.07;4.75;;;;;;;10.10;60.86;94837.56;5117374;27;20066;-66
2024/03/30 02:33:43;;;;;;;8.50;5.10;;;;;;;10.03;60.30;94839.84;5134302;27;20031;-66
2024/03/30 02:36:09;;;;;;;9.95;5.20;;;;;;;10.04;60.55;94827.69;5117382;27;20067;-66
2024/03/30 02:38:34;;;;;;;7.82;5.15;;;;;;;10.00;60.98;94840.09;5134105;27;20035;-67
2024/03/30 02:41:00;;;;;;;8.73;4.60;;;;;;;9.90;61.29;94838.34;5153113;27;20035;-67
2024/03/30 02:43:25;;;;;;;7.80;4.80;;;;;;;10.02;61.13;94842.53;5133899;27;20389;-67
2024/03/30 02:45:51;;;;;;;8.73;4.93;;;;;;;9.99;60.83;94842.78;5152743;27;20691;-67
2024/03/30 02:48:16;;;;;;;11.60;5.22;;;;;;;9.68;61.35;94815.88;5134004;27;20082;-67
2024/03/30 02:50:41;;;;;;;10.23;4.93;;;;;;;9.80;61.46;94852.03;5134164;27;20026;-66
2024/03/30 02:53:07;;;;;;;7.43;4.75;;;;;;;9.83;61.12;94854.41;5116776;27;20510;-66
2024/03/30 02:55:32;;;;;;;10.80;4.93;;;;;;;9.84;61.23;94860.41;5152757;27;20038;-67
2024/03/30 02:57:58;;;;;;;9.27;4.47;;;;;;;9.90;61.40;94857.31;5133839;27;20022;-66
2024/03/30 03:00:23;;;;;;;10.15;4.97;;;;;;;9.81;61.79;94851.09;5116944;27;20056;-66
2024/03/30 03:02:51;;;;;;;12.95;5.10;;;;;;;9.82;61.67;94862.28;5134034;27;20034;-66
2024/03/30 03:05:17;;;;;;;9.50;4.70;;;;;;;9.75;61.40;94850.75;5134076;27;20484;-67
2024/03/30 03:07:42;;;;;;;9.30;4.90;;;;;;;9.76;61.59;94863.59;5133878;27;20035;-66
2024/03/30 03:10:08;;;;;;;8.68;4.55;;;;;;;9.61;61.99;94844.03;5152690;27;20030;-67
2024/03/30 03:12:33;;;;;;;9.50;5.57;;;;;;;9.49;61.97;94832.88;5133863;27;20026;-66
2024/03/30 03:14:58;;;;;;;8.15;4.15;;;;;;;9.56;62.47;94851.38;5152239;27;20060;-67
2024/03/30 03:17:24;;;;;;;10.38;4.80;;;;;;;9.26;62.60;94813.91;5152491;27;20022;-67
2024/03/30 03:19:49;;;;;;;9.38;4.28;;;;;;;9.53;62.34;94849.03;5152334;27;20037;-67
2024/03/30 03:22:15;;;;;;;10.35;4.15;;;;;;;9.50;62.59;94846.66;5152249;27;20033;-66
2024/03/30 03:24:40;;;;;;;6.63;3.80;;;;;;;9.42;62.89;94855.03;5133794;27;20023;-66
2024/03/30 03:27:05;;;;;;;9.00;4.15;;;;;;;9.52;62.52;94844.78;5116915;27;20039;-67
2024/03/30 03:29:32;;;;;;;9.38;4.07;;;;;;;9.39;62.47;94845.72;5133529;27;20015;-66
2024/03/30 03:31:58;;;;;;;9.30;4.35;;;;;;;9.42;62.46;94860.22;5118931;27;20083;-67
2024/03/30 03:34:23;;;;;;;8.05;4.10;;;;;;;9.34;62.75;94844.44;5137530;27;20026;-67
2024/03/30 03:36:48;;;;;;;8.35;3.78;;;;;;;9.45;62.61;94846.22;5156186;27;20412;-66
2024/03/30 03:39:14;;;;;;;7.65;3.85;;;;;;;9.34;62.71;94816.75;5156154;27;20034;-66
2024/03/30 03:41:39;;;;;;;7.88;4.32;;;;;;;9.48;62.69;94841.59;5137526;27;20035;-67
2024/03/30 03:44:05;;;;;;;10.13;3.60;;;;;;;9.50;62.38;94846.66;5137927;27;20455;-67
2024/03/30 03:46:31;;;;;;;7.45;4.15;;;;;;;9.48;62.29;94839.00;5137769;27;20851;-67
2024/03/30 03:48:56;;;;;;;7.78;4.22;;;;;;;9.52;62.12;94850.78;5120735;27;20404;-67
2024/03/30 03:51:22;;;;;;;11.10;4.07;;;;;;;9.51;62.50;94848.31;5119958;27;20030;-66
2024/03/30 03:53:47;;;;;;;7.25;3.72;;;;;;;9.42;62.55;94859.38;5155900;27;20161;-67
2024/03/30 03:56:13;;;;;;;7.30;3.80;;;;;;;9.42;62.47;94856.78;5137295;27;20030;-67
2024/03/30 03:58:38;;;;;;;6.97;3.83;;;;;;;9.09;62.88;94823.00;5155837;27;20436;-67
2024/03/30 04:01:04;;;;;;;6.25;4.15;;;;;;;9.33;62.81;94861.78;5155849;27;20026;-67
2024/03/30 04:03:30;;;;;;;7.72;3.80;;;;;;;9.31;63.07;94855.88;5120333;27;20037;-67
2024/03/30 04:05:55;;;;;;;5.63;3.75;;;;;;;9.27;63.27;94859.63;5137013;27;20031;-67
2024/03/30 04:08:21;;;;;;;8.63;3.95;;;;;;;9.32;63.19;94860.09;5137159;27;20019;-66
2024/03/30 04:10:46;;;;;;;8.25;3.88;;;;;;;9.34;63.13;94854.81;5137089;27;20027;-66
2024/03/30 04:13:11;;;;;;;7.28;3.70;;;;;;;9.33;63.12;94850.56;5119797;27;20432;-67
2024/03/30 04:15:37;;;;;;;6.85;3.47;;;;;;;9.34;62.97;94857.41;5136919;27;20495;-66
2024/03/30 04:18:03;;;;;;;10.82;4.30;;;;;;;9.33;62.92;94859.19;5119844;27;20087;-67
2024/03/30 04:20:28;;;;;;;6.43;4.00;;;;;;;9.24;63.11;94854.69;5155641;27;20029;-67
2024/03/30 04:22:53;;;;;;;7.20;3.78;;;;;;;9.24;63.16;94861.63;5119628;27;20019;-67
2024/03/30 04:25:19;;;;;;;6.68;3.83;;;;;;;9.34;63.10;94865.19;5119935;27;20034;-67
2024/03/30 04:27:44;;;;;;;7.63;3.95;;;;;;;9.17;63.08;94843.97;5119725;27;20495;-66
2024/03/30 04:30:11;;;;;;;7.20;3.78;;;;;;;9.38;63.02;94875.19;5155520;27;20023;-66
2024/03/30 04:32:36;;;;;;;8.68;4.20;;;;;;;9.43;63.05;94876.59;5136599;27;20460;-67
2024/03/30 04:35:03;;;;;;;9.52;3.70;;;;;;;9.34;63.37;94875.56;5155084;27;20075;-67
2024/03/30 04:37:28;;;;;;;8.65;4.03;;;;;;;9.22;63.54;94859.19;5154846;27;20515;-67
2024/03/30 04:39:54;;;;;;;6.85;4.10;;;;;;;9.32;63.45;94869.66;5136510;27;20051;-66
2024/03/30 04:42:19;;;;;;;8.10;3.67;;;;;;;9.37;63.43;94870.94;5136004;27;20045;-66
2024/03/30 04:44:44;;;;;;;8.50;3.92;;;;;;;9.30;63.30;94856.78;5155057;27;20235;-66
2024/03/30 04:47:11;;;;;;;9.15;3.70;;;;;;;9.32;63.33;94861.88;5136603;27;20037;-67
2024/03/30 04:49:36;;;;;;;6.80;3.35;;;;;;;9.42;63.10;94861.97;5154906;27;20110;-67
2024/03/30 04:52:01;;;;;;;8.95;3.42;;;;;;;9.32;63.35;94841.97;5136487;27;20027;-67
2024/03/30 04:54:28;;;;;;;5.47;3.08;;;;;;;9.39;63.19;94855.28;5136261;27;20420;-67
2024/03/30 04:56:54;;;;;;;6.95;3.72;;;;;;;9.60;62.99;94874.34;5136468;27;20026;-67
2024/03/30 04:59:19;;;;;;;8.25;3.60;;;;;;;9.63;62.42;94862.91;5136306;27;20038;-67
2024/03/30 05:01:44;;;;;;;6.22;3.55;;;;;;;9.61;62.72;94857.84;5136364;27;20038;-67
2024/03/30 05:04:10;;;;;;;8.73;3.50;;;;;;;9.78;61.74;94863.50;5118696;27;20520;-67
2024/03/30 05:06:35;;;;;;;8.40;3.58;;;;;;;9.69;62.00;94871.97;5154861;27;20023;-67
2024/03/30 05:09:01;;;;;;;6.47;3.33;;;;;;;9.80;62.05;94867.59;5118793;27;20037;-67
2024/03/30 05:11:26;;;;;;;5.60;3.50;;;;;;;10.17;60.27;94869.03;5154952;27;20046;-66
2024/03/30 05:13:51;;;;;;;9.10;3.40;;;;;;;10.32;60.02;94867.84;5135499;27;20511;-67
2024/03/30 05:16:17;;;;;;;7.00;2.97;;;;;;;10.65;58.64;94866.88;5136087;27;20033;-67
2024/03/30 05:18:43;;;;;;;6.18;3.40;;;;;;;11.30;57.25;94872.69;5118501;27;20034;-67
2024/03/30 05:21:08;;;;;;;7.90;3.53;;;;;;;11.65;55.57;94879.28;5154666;27;20050;-67
2024/03/30 05:23:35;;;;;;;7.07;3.53;;;;;;;11.87;54.34;94865.28;5154100;27;20396;-67
2024/03/30 05:26:05;;;;;;;7.32;3.70;;;;;;;12.11;54.17;94877.91;5136112;27;20038;-67
2024/03/30 05:28:32;;;;;;;9.00;3.60;;;;;;;12.06;54.17;94890.50;5136158;27;20041;-67
2024/03/30 05:31:01;;;;;;;7.30;3.13;;;;;;;12.10;54.11;94883.28;5136022;27;20031;-67
2024/03/30 05:33:26;;;;;;;6.78;3.05;;;;;;;12.14;53.96;94892.44;5118490;27;20034;-67
2024/03/30 05:35:53;;;;;;;6.10;3.20;;;;;;;11.97;54.70;94884.31;5153860;27;20072;-67
2024/03/30 05:38:18;;;;;;;5.25;3.00;;;;;;;12.07;54.32;94877.38;5118179;27;20485;-67
2024/03/30 05:40:44;;;;;;;6.05;2.88;;;;;;;12.28;54.85;94884.25;5118088;27;20041;-67
2024/03/30 05:43:09;;;;;;;7.57;4.80;;;;;;;12.45;55.27;94885.34;5153799;27;20485;-66
2024/03/30 05:45:36;;;;;;;12.73;5.45;;;;;;;12.59;55.75;94889.31;5135088;27;20038;-67
2024/03/30 05:48:02;;;;;;;12.48;5.22;;;;;;;12.92;54.48;94899.31;5135235;27;20029;-67
2024/03/30 05:50:28;;;;;;;8.65;3.42;;;;;;;12.89;53.58;94894.38;5153408;27;20027;-67
2024/03/30 05:52:54;;;;;;;6.60;3.10;;;;;;;13.02;52.28;94888.06;5135139;27;20041;-67
2024/03/30 05:55:19;;;;;;;6.95;4.10;;;;;;;13.34;52.72;94891.16;5134418;27;20110;-67
2024/03/30 05:57:46;;;;;;;6.45;3.10;;;;;;;13.37;51.80;94895.28;5135221;27;20018;-67
2024/03/30 06:00:12;;;;;;;4.63;2.60;;;;;;;13.30;51.43;94889.81;5118135;27;20095;-68
2024/03/30 06:02:37;;;;;;;5.93;3.47;;;;;;;13.37;51.06;94896.13;5134856;27;20034;-67
2024/03/30 06:05:03;;;;;;;6.35;3.22;;;;;;;13.32;51.40;94880.06;5117568;27;20022;-67
2024/03/30 06:07:29;;;;;;;7.90;3.42;;;;;;;13.46;51.84;94883.19;5134883;27;20564;-67
2024/03/30 06:09:55;;;;;;;8.82;3.00;;;;;;;13.94;50.57;94879.53;5153112;27;20018;-67
2024/03/30 06:12:20;;;;;;;6.13;3.53;;;;;;;14.22;50.56;94878.53;5153205;27;20087;-67
2024/03/30 06:14:48;;;;;;;10.93;3.38;;;;;;;14.39;49.97;94874.28;5153007;27;20030;-67
2024/03/30 06:17:14;;;;;;;5.75;2.97;;;;;;;14.63;49.33;94878.94;5153013;27;20026;-67
2024/03/30 06:19:42;;;;;;;6.47;3.20;;;;;;;14.92;48.12;94883.09;5117783;27;20031;-67
2024/03/30 06:22:08;;;;;;;7.20;2.80;;;;;;;15.03;47.48;94871.56;5134761;27;20539;-67
2024/03/30 06:24:36;;;;;;;4.22;2.70;;;;;;;15.03;47.48;94876.81;5117549;27;20031;-68
2024/03/30 06:27:03;;;;;;;6.25;2.65;;;;;;;15.05;47.36;94875.69;5153239;27;20457;-67
2024/03/30 06:29:28;;;;;;;4.35;2.85;;;;;;;14.99;48.12;94884.16;5153124;27;20027;-67
2024/03/30 06:31:54;;;;;;;6.15;3.10;;;;;;;15.20;47.46;94875.94;5117216;27;20034;-67
2024/03/30 06:34:19;;;;;;;10.27;4.85;;;;;;;15.26;47.72;94862.22;5152860;27;20041;-67
2024/03/30 06:36:45;;;;;;;12.10;5.05;;;;;;;15.20;48.33;94882.00;5134298;27;20032;-67
2024/03/30 06:39:10;;;;;;;9.23;5.03;;;;;;;15.37;48.60;94869.00;5152468;27;20053;-67
2024/03/30 06:44:19;;;;;;;12.50;5.90;;;;;;;15.57;47.59;94873.06;5151990;27;20557;-67
2024/03/30 06:46:45;;;;;;;28.33;21.50;;;;;;;15.14;49.06;94873.94;5133540;27;20034;-67
2024/03/30 06:49:10;;;;;;;34.95;23.98;;;;;;;15.12;48.76;94871.47;5133667;27;20035;-67
2024/03/30 06:51:35;;;;;;;9.52;7.50;;;;;;;15.28;48.10;94877.78;5116104;27;20030;-67
2024/03/30 06:54:01;;;;;;;11.52;5.78;;;;;;;15.15;48.55;94878.19;5133285;27;20419;-66
2024/03/30 06:56:26;;;;;;;14.70;6.22;;;;;;;15.18;49.19;94881.34;5152008;27;20031;-67
2024/03/30 06:58:52;;;;;;;15.48;5.60;;;;;;;15.24;49.22;94879.91;5151738;27;20015;-67
2024/03/30 07:01:17;;;;;;;8.13;5.30;;;;;;;15.57;48.26;94875.69;5116264;27;20031;-67
2024/03/30 07:03:42;;;;;;;16.50;5.93;;;;;;;15.67;48.55;94875.56;5133131;27;20030;-67
2024/03/30 07:06:09;;;;;;;18.42;5.75;;;;;;;15.79;48.25;94883.97;5150658;27;20043;-67
2024/03/30 07:08:35;;;;;;;12.43;4.95;;;;;;;16.14;47.35;94882.16;5133031;27;20484;-67
2024/03/30 07:11:00;;;;;;;14.30;4.80;;;;;;;16.78;45.32;94885.91;5133322;27;20079;-67
2024/03/30 07:13:26;;;;;;;10.60;4.47;;;;;;;16.92;44.99;94887.06;5151356;27;20460;-67
2024/03/30 07:15:51;;;;;;;11.85;4.35;;;;;;;17.03;44.29;94878.03;5132962;27;20031;-68
2024/03/30 07:18:18;;;;;;;13.25;5.18;;;;;;;16.44;46.28;94884.19;5115721;27;20019;-67
2024/03/30 07:20:44;;;;;;;7.43;4.30;;;;;;;17.04;44.59;94879.66;5133315;27;20031;-67
2024/03/30 07:23:09;;;;;;;11.82;4.60;;;;;;;17.49;43.97;94880.91;5132785;27;20027;-67
2024/03/30 07:25:38;;;;;;;11.60;5.70;;;;;;;17.33;44.51;94879.16;5151528;27;20038;-67
2024/03/30 07:28:05;;;;;;;14.40;7.47;;;;;;;16.74;45.45;94889.78;5115878;27;20030;-67
2024/03/30 07:33:50;;;;;;;9.45;4.63;;;;;;;17.24;44.59;94896.69;5075384;28;20461;-67
2024/03/30 07:36:16;;;;;;;8.77;4.60;;;;;;;16.70;45.53;94893.72;5117808;27;20038;-67
2024/03/30 07:38:41;;;;;;;11.88;4.03;;;;;;;16.47;45.20;94862.88;5117536;27;1147224;-67
2024/03/30 07:41:07;;;;;;;7.97;3.60;;;;;;;16.71;45.21;94892.72;5151943;27;20416;-67
2024/03/30 07:43:32;;;;;;;11.32;5.80;;;;;;;17.07;44.55;94895.06;5150994;27;20317;-67
2024/03/30 07:46:02;;;;;;;9.32;4.07;;;;;;;17.20;44.14;94890.97;5133308;27;20019;-67
2024/03/30 07:48:28;;;;;;;9.15;3.95;;;;;;;17.45;43.55;94892.75;5116494;27;20081;-67
2024/03/30 07:50:53;;;;;;;9.40;3.70;;;;;;;17.34;43.80;94896.53;5152224;27;20480;-67
2024/03/30 07:53:18;;;;;;;10.57;3.88;;;;;;;17.32;43.69;94888.81;5115977;27;20034;-67
2024/03/30 07:55:44;;;;;;;8.60;4.22;;;;;;;17.31;43.68;94895.06;5152136;27;20034;-67
2024/03/30 07:58:09;;;;;;;11.43;4.50;;;;;;;17.29;44.43;94885.72;5116203;27;20103;-67
2024/03/30 08:00:35;;;;;;;10.82;3.55;;;;;;;17.89;43.55;94855.53;5151538;27;20461;-66
2024/03/30 08:03:01;;;;;;;11.23;4.32;;;;;;;18.37;42.01;94882.56;5099262;27;20489;-67
2024/03/30 08:05:27;;;;;;;10.30;4.50;;;;;;;18.26;42.12;94892.47;5133196;27;20046;-67
2024/03/30 08:07:53;;;;;;;10.13;3.95;;;;;;;18.81;40.65;94874.91;5133323;27;20460;-67
2024/03/30 08:10:18;;;;;;;10.18;4.18;;;;;;;18.72;40.86;94884.66;5133449;27;20026;-67
2024/03/30 08:12:44;;;;;;;7.07;3.30;;;;;;;18.77;40.83;94888.59;5151737;27;20041;-67
2024/03/30 08:15:09;;;;;;;11.50;3.95;;;;;;;18.95;39.89;94879.41;5116101;27;20026;-66
2024/03/30 08:17:34;;;;;;;8.02;3.72;;;;;;;19.32;39.26;94872.50;5117251;27;20045;-67
2024/03/30 08:20:00;;;;;;;10.80;4.07;;;;;;;19.31;39.39;94864.78;5136658;27;20037;-66
2024/03/30 08:22:25;;;;;;;12.75;4.03;;;;;;;19.16;40.31;94870.81;5119836;27;20039;-67
2024/03/30 08:24:51;;;;;;;10.63;4.20;;;;;;;18.95;40.26;94873.31;5155414;27;20027;-67
2024/03/30 08:27:16;;;;;;;12.18;4.13;;;;;;;18.98;40.83;94862.44;5119709;27;20031;-67
2024/03/30 08:29:42;;;;;;;9.43;3.92;;;;;;;18.68;40.57;94870.19;5136640;27;20042;-67
2024/03/30 08:32:08;;;;;;;12.02;3.88;;;;;;;19.48;38.64;94858.34;5137151;27;20042;-67
2024/03/30 08:34:33;;;;;;;8.98;3.60;;;;;;;19.77;37.75;94864.66;5136681;27;20469;-67
2024/03/30 08:36:59;;;;;;;11.05;3.50;;;;;;;19.67;37.64;94850.91;5119578;27;20034;-67
2024/03/30 08:39:24;;;;;;;9.35;3.22;;;;;;;19.46;38.51;94855.06;5155152;27;20436;-67
2024/03/30 08:41:50;;;;;;;10.63;3.28;;;;;;;20.03;37.51;94851.81;5155450;27;20031;-67
2024/03/30 08:44:15;;;;;;;11.23;3.50;;;;;;;20.20;37.51;94855.06;5136672;27;20027;-67
2024/03/30 08:46:41;;;;;;;13.48;3.55;;;;;;;19.72;38.41;94851.19;5119420;27;20327;-67
2024/03/30 08:49:06;;;;;;;12.60;3.03;;;;;;;19.98;38.89;94843.66;5154940;27;20484;-67
2024/03/30 08:51:32;;;;;;;9.48;3.30;;;;;;;19.92;38.57;94843.53;5119129;27;20508;-67
2024/03/30 08:54:04;;;;;;;9.80;3.00;;;;;;;20.09;37.88;94847.63;5136255;27;20026;-69
2024/03/30 08:56:30;;;;;;;7.43;2.80;;;;;;;20.09;37.96;94843.16;5118931;27;20458;-67
2024/03/30 08:58:55;;;;;;;8.77;3.10;;;;;;;19.95;38.62;94830.03;5136210;27;20031;-67
2024/03/30 09:01:21;;;;;;;12.55;2.72;;;;;;;20.44;37.23;94832.78;5136154;27;20023;-67
2024/03/30 09:03:46;;;;;;;14.48;2.92;;;;;;;20.45;36.65;94836.28;5118887;27;20494;-67
2024/03/30 09:06:12;;;;;;;8.43;2.67;;;;;;;20.11;36.76;94828.97;5136048;27;20038;-67
2024/03/30 09:08:38;;;;;;;7.60;3.08;;;;;;;20.41;36.70;94827.06;5154501;27;20022;-67
2024/03/30 09:11:03;;;;;;;13.35;3.65;;;;;;;20.09;38.39;94826.53;5136131;27;20026;-67
2024/03/30 09:13:29;;;;;;;14.57;3.60;;;;;;;20.17;38.22;94812.41;5136078;27;20030;-67
2024/03/30 09:15:55;;;;;;;9.57;3.42;;;;;;;20.36;38.37;94813.63;5118899;27;20031;-67
2024/03/30 09:18:22;;;;;;;12.50;4.32;;;;;;;20.31;38.52;94814.22;5154248;27;20034;-67
2024/03/30 09:20:48;;;;;;;9.73;3.22;;;;;;;19.93;39.07;94790.66;5136011;27;20495;-67
2024/03/30 09:23:13;;;;;;;12.50;4.90;;;;;;;20.06;39.19;94809.28;5154233;27;20030;-68
2024/03/30 09:25:38;;;;;;;16.80;7.60;;;;;;;20.32;39.27;94805.28;5135783;27;20029;-67
2024/03/30 09:28:04;;;;;;;15.50;4.07;;;;;;;20.29;38.55;94805.66;5118166;27;20031;-67
2024/03/30 09:30:29;;;;;;;13.40;3.35;;;;;;;20.20;39.19;94802.31;5134788;27;20107;-67
2024/03/30 09:32:55;;;;;;;12.18;3.55;;;;;;;20.12;39.04;94801.63;5153823;27;20034;-68
2024/03/30 09:35:21;;;;;;;6.88;2.90;;;;;;;20.42;39.42;94797.88;5153891;27;20027;-67
2024/03/30 09:37:46;;;;;;;9.90;2.88;;;;;;;20.85;36.27;94786.50;5153656;27;20022;-67
2024/03/30 09:40:12;;;;;;;5.45;2.55;;;;;;;20.93;37.39;94781.91;5114925;27;20047;-67
2024/03/30 09:42:40;;;;;;;9.48;3.03;;;;;;;20.82;37.80;94782.44;5114505;27;20054;-67
2024/03/30 09:45:05;;;;;;;9.52;2.83;;;;;;;20.61;37.83;94783.25;5132980;27;20054;-67
2024/03/30 09:47:31;;;;;;;8.00;2.17;;;;;;;20.43;36.99;94781.03;5114457;27;20077;-67
2024/03/30 09:50:00;;;;;;;8.50;2.90;;;;;;;20.77;37.18;94784.00;5131710;27;20582;-67
2024/03/30 09:52:25;;;;;;;13.50;2.83;;;;;;;20.53;38.05;94776.31;5131589;27;20031;-68
2024/03/30 09:54:54;;;;;;;10.25;2.42;;;;;;;20.61;36.72;94756.06;5114500;27;20023;-68
2024/03/30 09:57:19;;;;;;;10.35;2.33;;;;;;;20.87;37.81;94772.13;5131329;27;20026;-67
2024/03/30 09:59:45;;;;;;;12.73;2.40;;;;;;;21.06;37.50;94770.63;5097444;27;20023;-67
2024/03/30 10:02:11;;;;;;;12.88;2.60;;;;;;;21.31;37.65;94768.38;5114225;27;20030;-67
2024/03/30 10:04:36;;;;;;;11.30;2.53;;;;;;;21.10;37.55;94761.31;5131513;27;20027;-68
2024/03/30 10:07:02;;;;;;;7.15;3.08;;;;;;;21.41;37.49;94752.19;5133180;27;20027;-67
2024/03/30 10:09:27;;;;;;;8.43;2.80;;;;;;;21.26;37.56;94748.81;5114199;27;20058;-67
2024/03/30 10:12:14;;;;;;;10.13;2.60;;;;;;;21.06;37.62;94754.78;5114270;27;20523;-68
2024/03/30 10:14:44;;;;;;;10.38;2.50;;;;;;;21.07;37.76;94752.97;5115791;27;20092;-67
2024/03/30 10:17:09;;;;;;;7.97;2.55;;;;;;;21.00;37.81;94730.97;5097459;27;20027;-67
2024/03/30 10:19:35;;;;;;;6.88;2.95;;;;;;;21.20;38.02;94745.94;5132274;27;20402;-67
2024/03/30 10:22:01;;;;;;;11.88;3.30;;;;;;;21.14;37.99;94740.59;5113829;27;20496;-67
2024/03/30 10:24:27;;;;;;;7.32;2.50;;;;;;;21.24;38.01;94727.06;5114083;27;20051;-67
2024/03/30 10:26:53;;;;;;;5.43;2.47;;;;;;;21.66;36.40;94739.28;5114425;27;20031;-67
2024/03/30 10:29:19;;;;;;;5.40;2.40;;;;;;;21.51;35.78;94734.16;5130947;27;20489;-67
2024/03/30 10:31:45;;;;;;;6.90;2.40;;;;;;;21.67;34.96;94725.03;5113934;27;20019;-67
2024/03/30 10:34:10;;;;;;;6.88;2.70;;;;;;;21.88;34.98;94718.00;5096773;27;20035;-67
2024/03/30 10:36:37;;;;;;;8.50;2.22;;;;;;;21.91;33.79;94704.38;5131200;27;20027;-67
2024/03/30 10:39:04;;;;;;;7.28;2.15;;;;;;;21.87;35.29;94714.56;5130684;27;20055;-67
2024/03/30 10:41:30;;;;;;;6.72;1.92;;;;;;;21.99;34.67;94701.56;5130804;27;20102;-67
2024/03/30 10:43:55;;;;;;;8.57;2.10;;;;;;;22.40;33.80;94687.38;5130576;27;20504;-67
2024/03/30 10:46:23;;;;;;;9.32;2.08;;;;;;;21.99;34.74;94698.91;5132265;27;20432;-67
2024/03/30 10:48:49;;;;;;;7.53;3.00;;;;;;;22.22;34.11;94686.16;5130524;27;20031;-67
2024/03/30 10:51:15;;;;;;;5.45;1.88;;;;;;;22.05;34.06;94690.19;5132389;27;20026;-67
2024/03/30 10:53:40;;;;;;;9.80;2.08;;;;;;;21.96;34.85;94694.84;5113318;27;20031;-67
2024/03/30 10:56:06;;;;;;;4.88;1.85;;;;;;;22.00;35.17;94687.31;5130630;27;20027;-67
2024/03/30 10:58:31;;;;;;;11.00;2.10;;;;;;;22.12;35.20;94685.72;5130596;27;20485;-67
2024/03/30 11:00:57;;;;;;;8.23;2.30;;;;;;;22.18;34.08;94684.94;5113322;28;20027;-67
2024/03/30 11:03:24;;;;;;;5.32;1.90;;;;;;;22.27;33.62;94678.44;5130544;27;20035;-67
2024/03/30 11:05:49;;;;;;;6.20;2.30;;;;;;;22.20;34.50;94672.31;5113271;28;20023;-67
2024/03/30 11:08:14;;;;;;;9.23;2.17;;;;;;;22.47;33.38;94661.75;5130541;28;20034;-67
2024/03/30 11:10:40;;;;;;;5.88;2.00;;;;;;;22.73;32.70;94667.03;5113013;28;20456;-67
2024/03/30 11:13:05;;;;;;;10.80;2.67;;;;;;;22.70;33.81;94654.19;5131594;27;20031;-67
2024/03/30 11:15:35;;;;;;;6.55;1.83;;;;;;;22.41;32.82;94657.28;5131643;27;20019;-67
2024/03/30 11:18:02;;;;;;;5.53;1.90;;;;;;;22.72;32.73;94660.09;5130458;28;20035;-67
2024/03/30 11:20:36;;;;;;;6.40;2.15;;;;;;;22.58;32.83;94658.50;5130209;28;20035;-67
2024/03/30 11:23:09;;;;;;;8.25;2.17;;;;;;;22.63;33.12;94645.47;5113188;28;20023;-67
2024/03/30 11:25:34;;;;;;;8.02;2.10;;;;;;;22.70;32.40;94642.78;5130262;28;20046;-67
2024/03/30 11:28:07;;;;;;;7.18;2.08;;;;;;;22.78;33.30;94645.22;5113457;28;20031;-67
2024/03/30 11:31:03;;;;;;;4.97;1.90;;;;;;;22.96;31.87;94639.31;5113296;28;20496;-67